Data for 06/12/2013

Time Sea-Level Adjusted Pressure Absolute Pressure Temperature Relative Humidity Dew Point   
(mb) (inHg) (mb) (inHg) (C) (F) (%) (C) (F)
00:05 1020 30.12 849 25.07 10.4 50.6 85 8 46.3
00:10 1019 30.09 849 25.07 10.5 50.9 84 8 46.4
00:15 1020 30.12 849 25.07 10.5 50.9 84 7.9 46.2
00:20 1020 30.12 849 25.07 10.6 51 84 7.9 46.3
00:25 1020 30.12 849 25.07 10.5 50.9 84 7.9 46.2
00:30 1020 30.12 849 25.07 10.7 51.2 82 7.7 45.9
00:35 1020 30.12 849 25.07 10.7 51.3 82 7.8 46
00:40 1020 30.12 849 25.07 10.6 51.2 83 8 46.3
00:45 1020 30.12 849 25.07 10.3 50.5 85 7.8 46.1
00:50 1020 30.12 849 25.07 10.2 50.3 84 7.7 45.8
00:55 1020 30.12 849 25.07 10.3 50.5 84 7.7 45.8
01:00 1020 30.12 849 25.07 10.3 50.5 84 7.7 45.9
01:05 1020 30.12 849 25.07 10.3 50.5 84 7.7 45.8
01:10 1020 30.12 849 25.07 10.2 50.4 84 7.7 45.9
01:15 1020 30.12 849 25.07 10.1 50.1 85 7.6 45.7
01:20 1020 30.12 849 25.07 9.9 49.8 85 7.5 45.5
01:25 1020 30.12 849 25.07 9.6 49.3 86 7.4 45.2
01:30 1020 30.12 849 25.07 9.4 49 86 7.3 45.1
01:35 1020 30.12 849 25.07 9.4 49 86 7.3 45.1
01:40 1020 30.12 849 25.07 9.4 49 86 7.2 45
01:45 1020 30.12 849 25.07 9.4 48.9 86 7.2 45
01:50 1020 30.12 849 25.07 9.3 48.7 87 7.2 45
01:55 1020 30.12 849 25.07 9.3 48.7 86 7.1 44.8
02:00 1020 30.12 849 25.07 9.4 48.9 86 7.1 44.9
02:05 1020 30.12 849 25.07 9.4 48.8 86 7.2 45
02:10 1020 30.12 849 25.07 9.5 49 86 7.2 45
02:15 1019 30.09 849 25.07 9.6 49.2 85 7.2 44.9
02:20 1019 30.09 849 25.07 9.5 49.1 86 7.3 45.1
02:25 1019 30.09 849 25.07 9.3 48.7 87 7.2 44.9
02:30 1019 30.09 849 25.07 9 48.2 88 7 44.7
02:35 1019 30.09 849 25.07 9 48.2 87 6.9 44.5
02:40 1019 30.09 849 25.07 9.1 48.4 86 6.9 44.5
02:45 1019 30.09 849 25.07 9.1 48.4 86 6.9 44.5
02:50 1019 30.09 849 25.07 9.1 48.4 86 6.8 44.2
02:55 1019 30.09 849 25.07 9.2 48.5 86 6.9 44.4
03:00 1019 30.09 849 25.07 9.1 48.5 86 6.9 44.3
03:05 1019 30.09 849 25.07 9.3 48.7 84 6.7 44.1
03:10 1019 30.09 849 25.07 9.3 48.8 85 6.9 44.4
03:15 1019 30.09 849 25.07 9.2 48.5 85 6.9 44.3
03:20 1019 30.09 849 25.07 9 48.2 86 6.8 44.2
03:25 1019 30.09 848 25.04 8.9 48 87 6.8 44.2
03:30 1019 30.09 849 25.07 8.9 47.9 86 6.7 44
03:35 1019 30.09 849 25.07 8.8 47.8 86 6.6 43.9
03:40 1019 30.09 849 25.07 8.8 47.8 87 6.6 43.9
03:45 1019 30.09 849 25.07 8.7 47.6 87 6.7 44
03:50 1019 30.09 848 25.04 8.6 47.5 87 6.5 43.7
03:55 1019 30.09 849 25.07 8.6 47.4 87 6.5 43.7
04:00 1019 30.09 848 25.04 8.5 47.3 87 6.5 43.6
04:05 1019 30.09 848 25.04 8.6 47.5 87 6.5 43.7
04:10 1019 30.09 849 25.07 8.6 47.6 87 6.6 43.8
04:15 1019 30.09 849 25.07 8.6 47.5 87 6.6 43.8
04:20 1019 30.09 848 25.04 8.6 47.5 86 6.5 43.7
04:25 1019 30.09 848 25.04 8.4 47.2 88 6.5 43.8
04:30 1019 30.09 848 25.04 8.5 47.2 87 6.4 43.5
04:35 1019 30.09 848 25.04 8.3 47 88 6.4 43.6
04:40 1019 30.09 849 25.07 8.3 46.9 88 6.4 43.6
04:45 1019 30.09 849 25.07 7.9 46.2 90 6.4 43.4
04:50 1019 30.09 848 25.04 7.8 46.1 90 6.2 43.2
04:55 1019 30.09 848 25.04 7.8 46.1 89 6.2 43.2
05:00 1019 30.09 848 25.04 7.9 46.2 89 6.3 43.3
05:05 1019 30.09 848 25.04 8.2 46.7 88 6.3 43.4
05:10 1019 30.09 848 25.04 9 48.2 85 6.7 44.1
05:15 1019 30.09 848 25.04 9.3 48.7 87 7.2 44.9
05:20 1019 30.09 848 25.04 9.4 48.9 87 7.3 45.2
05:25 1019 30.09 848 25.04 9.4 48.8 88 7.5 45.6
05:30 1019 30.09 848 25.04 9.7 49.4 90 8.1 46.6
05:35 1019 30.09 848 25.04 10.2 50.3 88 8.4 47.1
05:40 1019 30.09 848 25.04 10.5 50.9 87 8.5 47.3
05:45 1019 30.09 848 25.04 10.7 51.2 87 8.6 47.4
05:50 1019 30.09 848 25.04 10.9 51.6 86 8.6 47.5
05:55 1019 30.09 848 25.04 11 51.9 85 8.6 47.5
06:00 1019 30.09 848 25.04 11.2 52.1 85 8.7 47.7
06:05 1019 30.09 848 25.04 11.4 52.5 84 8.7 47.7
06:10 1019 30.09 848 25.04 11.6 52.9 83 8.8 47.9
06:15 1019 30.09 848 25.04 11.5 52.8 83 8.8 47.9
06:20 1019 30.09 848 25.04 11.4 52.6 84 8.9 47.9
06:25 1019 30.09 848 25.04 11.4 52.4 84 8.8 47.8
06:30 1019 30.09 848 25.04 11.3 52.3 85 8.8 47.8
06:35 1018 30.06 848 25.04 11.4 52.5 83 8.7 47.6
06:40 1018 30.06 848 25.04 11.7 53.1 82 8.8 47.9
06:45 1018 30.06 848 25.04 11.8 53.2 82 8.8 47.8
06:50 1019 30.09 848 25.04 11.7 53.1 82 8.8 47.9
06:55 1019 30.09 848 25.04 11.7 53.1 82 8.7 47.7
07:00 1019 30.09 848 25.04 11.8 53.3 81 8.7 47.7
07:05 1019 30.09 848 25.04 11.8 53.2 82 8.8 47.9
07:10 1019 30.09 848 25.04 11.8 53.2 81 8.7 47.6
07:15 1019 30.09 848 25.04 11.9 53.3 81 8.8 47.8
07:20 1019 30.09 848 25.04 11.8 53.2 82 8.9 47.9
07:25 1019 30.09 848 25.04 11.7 53.1 82 8.8 47.9
07:30 1019 30.09 848 25.04 11.7 53 83 8.9 48.1
07:35 1019 30.09 848 25.04 11.7 53 84 9 48.3
07:40 1019 30.09 848 25.04 11.6 52.9 84 9 48.2
07:45 1019 30.09 848 25.04 11.6 52.9 84 8.9 48.1
07:50 1019 30.09 848 25.04 11.7 53 83 9 48.1
07:55 1019 30.09 848 25.04 11.8 53.2 82 8.9 48
08:00 1019 30.09 848 25.04 12.1 53.7 82 9.1 48.3
08:05 1019 30.09 848 25.04 12.3 54.1 80 8.9 48.1
08:10 1019 30.09 848 25.04 12.4 54.2 78 8.7 47.7
08:15 1019 30.09 848 25.04 12.6 54.6 78 8.8 47.8
08:20 1019 30.09 848 25.04 12.6 54.7 78 8.9 48.1
08:25 1019 30.09 848 25.04 12.6 54.7 78 8.9 48.1
08:30 1019 30.09 848 25.04 12.6 54.6 78 8.9 48
08:35 1019 30.09 848 25.04 12.6 54.7 79 9 48.2
08:40 1019 30.09 848 25.04 12.8 55 78 9 48.2
08:45 1018 30.06 848 25.04 13.2 55.7 76 9 48.3
08:50 1018 30.06 848 25.04 13.1 55.5 77 9.1 48.3
08:55 1018 30.06 847 25.01 13.2 55.7 74 8.6 47.5
09:00 1018 30.06 847 25.01 13.8 56.9 68 8.1 46.6
09:05 1018 30.06 847 25.01 14.6 58.2 66 8.5 47.2
09:10 1018 30.06 847 25.01 14.8 58.7 67 8.9 48
09:15 1018 30.06 847 25.01 14.9 58.7 66 8.6 47.5
09:20 1018 30.06 847 25.01 15.1 59.1 64 8.4 47
09:25 1018 30.06 847 25.01 15.3 59.5 63 8.3 46.9
09:30 1018 30.06 847 25.01 15.5 60 63 8.6 47.6
09:35 1018 30.06 847 25.01 15.7 60.2 63 8.8 47.8
09:40 1018 30.06 847 25.01 15.7 60.2 61 8.4 47.1
09:45 1018 30.06 847 25.01 15.7 60.3 62 8.6 47.4
09:50 1018 30.06 847 25.01 15.8 60.5 61 8.3 47
09:55 1018 30.06 847 25.01 16 60.7 61 8.6 47.5
10:00 1018 30.06 847 25.01 16.1 60.9 61 8.6 47.4
10:05 1018 30.06 847 25.01 16.2 61.1 61 8.8 47.9
10:10 1018 30.06 847 25.01 16.1 60.9 61 8.8 47.8
10:15 1018 30.06 847 25.01 15.9 60.7 63 8.9 48.1
10:20 1018 30.06 847 25.01 15.9 60.5 62 8.7 47.7
10:25 1018 30.06 847 25.01 15.8 60.4 62 8.5 47.4
10:30 1018 30.06 847 25.01 15.9 60.7 62 8.9 47.9
10:35 1018 30.06 847 25.01 16.1 60.9 62 9 48.1
10:40 1018 30.06 847 25.01 16.2 61.2 62 9 48.2
10:45 1018 30.06 847 25.01 16.3 61.3 61 8.7 47.7
10:50 1018 30.06 847 25.01 16.8 62.2 57 8.4 47
10:55 1018 30.06 847 25.01 17.4 63.2 58 9.1 48.4
11:00 1018 30.06 847 25.01 17.6 63.6 57 9.1 48.3
11:05 1018 30.06 847 25.01 17.8 64.1 57 9.2 48.5
11:10 1018 30.06 847 25.01 17.9 64.3 55 9 48.1
11:15 1018 30.06 847 25.01 18.2 64.8 56 9.4 48.9
11:20 1018 30.06 847 25.01 18.6 65.6 55 9.6 49.2
11:25 1017 30.03 847 25.01 19.2 66.6 52 9.2 48.6
11:30 1017 30.03 847 25.01 19.3 66.7 52 9.2 48.5
11:35 1017 30.03 847 25.01 19.6 67.2 52 9.6 49.3
11:40 1017 30.03 847 25.01 20.1 68.1 50 9.6 49.2
11:45 1017 30.03 847 25.01 20 68 49 9.1 48.4
11:50 1017 30.03 846 24.98 20.3 68.5 47 8.7 47.7
11:55 1017 30.03 846 24.98 20.2 68.4 48 8.9 48
12:00 1017 30.03 846 24.98 20.5 69 48 9.4 48.9
12:05 1017 30.03 846 24.98 20.4 68.7 48 9.2 48.5
12:10 1017 30.03 846 24.98 20.8 69.4 43 8.1 46.5
12:15 1017 30.03 846 24.98 21.2 70.1 45 8.9 48
12:20 1017 30.03 846 24.98 20.7 69.2 47 9 48.2
12:25 1017 30.03 846 24.98 21 69.7 44 8.5 47.3
12:30 1017 30.03 846 24.98 21.4 70.6 43 8.4 47.1
12:35 1017 30.03 846 24.98 21.7 71.1 44 9 48.2
12:40 1017 30.03 846 24.98 21.9 71.4 43 8.9 48
12:45 1017 30.03 846 24.98 22.4 72.3 39 8 46.4
12:50 1017 30.03 846 24.98 22.8 73 38 8 46.4
12:55 1017 30.03 846 24.98 23.3 73.9 37 8 46.4
13:00 1017 30.03 846 24.98 23.1 73.5 35 7 44.6
13:05 1017 30.03 846 24.98 23.1 73.6 36 7.5 45.6
13:10 1017 30.03 846 24.98 23.1 73.5 35 7 44.7
13:15 1017 30.03 846 24.98 23.2 73.7 37 7.7 45.9
13:20 1017 30.03 846 24.98 23 73.5 36 7.5 45.5
13:25 1017 30.03 846 24.98 22.9 73.2 36 7.1 44.8
13:30 1017 30.03 846 24.98 22.8 73 36 7 44.6
13:35 1016 30 846 24.98 22.8 73.1 37 7.5 45.4
13:40 1016 30 846 24.98 22.8 73 37 7.5 45.5
13:45 1016 30 846 24.98 22.9 73.3 37 7.6 45.7
13:50 1016 30 845 24.95 23.4 74.1 33 6.2 43.2
13:55 1016 30 845 24.95 23.5 74.2 30 5.1 41.1
14:00 1016 30 845 24.95 23.4 74.1 28 4.3 39.8
14:05 1016 30 845 24.95 23.6 74.4 29 4.6 40.3
14:10 1016 30 845 24.95 24 75.2 27 4.1 39.5
14:15 1016 30 845 24.95 24.1 75.4 27 4.3 39.8
14:20 1016 30 845 24.95 24.2 75.6 26 3.6 38.5
14:25 1016 30 845 24.95 24.3 75.8 26 4.1 39.3
14:30 1016 30 845 24.95 24.5 76.1 26 4.1 39.3
14:35 1016 30 845 24.95 24.8 76.7 25 3.5 38.4
14:40 1016 30 845 24.95 25 77.1 23 2.7 36.8
14:45 1016 30 845 24.95 24.9 76.8 23 2.8 37
14:50 1016 30 845 24.95 24.8 76.6 25 3.8 38.8
14:55 1016 30 845 24.95 24.9 76.8 22 2.2 36
15:00 1016 30 845 24.95 25.1 77.2 21 1.7 35.1
15:05 1016 30 845 24.95 25.8 78.4 22 2.8 37
15:10 1015 29.97 845 24.95 25.8 78.4 23 3.5 38.4
15:15 1015 29.97 845 24.95 25.4 77.8 21 2 35.7
15:20 1015 29.97 845 24.95 25.2 77.4 22 2.2 35.9
15:25 1015 29.97 844 24.92 25.3 77.5 21 2 35.6
15:30 1015 29.97 844 24.92 25.7 78.2 22 2.6 36.7
15:35 1015 29.97 844 24.92 25.7 78.2 20 1 33.7
15:40 1015 29.97 844 24.92 25.4 77.8 21 2.1 35.8
15:45 1015 29.97 844 24.92 25.5 77.8 21 1.6 34.8
15:50 1015 29.97 844 24.92 25.3 77.6 21 1.9 35.5
15:55 1015 29.97 844 24.92 25.4 77.7 23 3.2 37.7
16:00 1015 29.97 844 24.92 25.5 77.9 22 2.5 36.5
16:05 1015 29.97 844 24.92 25.6 78 21 2.2 35.9
16:10 1015 29.97 844 24.92 25.7 78.3 20 1.4 34.5
16:15 1015 29.97 844 24.92 25.9 78.5 18 0.3 32.5
16:20 1015 29.97 844 24.92 25.3 77.5 25 4 39.2
16:25 1015 29.97 844 24.92 24.9 76.8 24 2.9 37.2
16:30 1015 29.97 844 24.92 24.7 76.4 22 1.8 35.3
16:35 1015 29.97 844 24.92 24.5 76.2 24 2.9 37.3
16:40 1015 29.97 844 24.92 24.1 75.4 24 2.7 36.8
16:45 1015 29.97 844 24.92 24.2 75.5 24 2.6 36.6
16:50 1015 29.97 844 24.92 24 75.2 26 3.6 38.4
16:55 1015 29.97 844 24.92 24 75.2 25 3.2 37.7
17:00 1015 29.97 844 24.92 23.9 75.1 27 4.1 39.4
17:05 1015 29.97 844 24.92 23.6 74.6 30 5.3 41.5
17:10 1015 29.97 844 24.92 23.4 74.1 28 4 39.2
17:15 1015 29.97 844 24.92 23.3 73.9 29 4.4 40
17:20 1015 29.97 844 24.92 23.1 73.7 29 4.3 39.7
17:25 1015 29.97 844 24.92 23.1 73.5 29 4.1 39.4
17:30 1015 29.97 844 24.92 23 73.4 28 3.9 39
17:35 1015 29.97 844 24.92 23 73.4 29 4.1 39.5
17:40 1015 29.97 844 24.92 22.8 73 29 3.9 39
17:45 1015 29.97 844 24.92 22.7 72.9 30 4.4 40
17:50 1015 29.97 844 24.92 22.6 72.7 30 4.4 40
17:55 1015 29.97 844 24.92 22.6 72.6 28 3.4 38.1
18:00 1015 29.97 844 24.92 22.6 72.6 29 3.9 39.1
18:05 1015 29.97 844 24.92 22.6 72.8 28 3.5 38.3
18:10 1015 29.97 845 24.95 22.7 72.8 29 3.8 38.9
18:15 1015 29.97 844 24.92 22.7 72.9 28 3.6 38.5
18:20 1015 29.97 844 24.92 22.7 72.9 29 3.8 38.8
18:25 1015 29.97 844 24.92 22.6 72.6 28 3.2 37.8
18:30 1015 29.97 844 24.92 22.5 72.5 28 3.4 38.1
18:35 1015 29.97 844 24.92 22.5 72.5 31 4.9 40.8
18:40 1015 29.97 844 24.92 22.3 72.1 31 4.6 40.2
18:45 1015 29.97 844 24.92 22.3 72.1 31 4.3 39.8
18:50 1015 29.97 844 24.92 22.4 72.2 31 4.4 40
18:55 1015 29.97 844 24.92 22.4 72.2 31 4.4 39.9
19:00 1015 29.97 844 24.92 22.4 72.2 30 4.1 39.3
19:05 1015 29.97 844 24.92 22.1 71.8 31 4.2 39.6
19:10 1015 29.97 844 24.92 21.9 71.5 31 4.3 39.7
19:15 1015 29.97 844 24.92 21.6 71 31 4.1 39.4
19:20 1015 29.97 844 24.92 21.4 70.6 32 4 39.3
19:25 1015 29.97 844 24.92 21.3 70.3 31 3.6 38.6
19:30 1015 29.97 844 24.92 21.3 70.3 30 3.1 37.5
19:35 1015 29.97 845 24.95 21.3 70.3 32 4.2 39.6
19:40 1015 29.97 845 24.95 21.2 70.1 31 3.5 38.4
19:45 1016 30 845 24.95 21.1 69.9 29 2.5 36.6
19:50 1016 30 845 24.95 21.1 70 28 2.2 36
19:55 1016 30 845 24.95 21.1 69.9 28 1.8 35.3
20:00 1016 30 845 24.95 21.1 69.9 31 3.6 38.5
20:05 1016 30 846 24.98 20.5 69 33 3.8 38.9
20:10 1017 30.03 846 24.98 20.8 69.4 30 2.8 37
20:15 1017 30.03 846 24.98 20.9 69.6 32 3.8 38.8
20:20 1017 30.03 846 24.98 20.6 69 32 3.4 38.1
20:25 1017 30.03 846 24.98 20.6 69 29 1.9 35.5
20:30 1017 30.03 846 24.98 20.8 69.5 29 2.3 36.2
20:35 1017 30.03 846 24.98 20.8 69.5 28 2 35.6
20:40 1017 30.03 846 24.98 20.7 69.3 29 2.2 35.9
20:45 1017 30.03 847 25.01 20.6 69 31 2.8 37.1
20:50 1017 30.03 847 25.01 20.5 68.8 29 2 35.6
20:55 1018 30.06 847 25.01 20.5 68.8 29 2.1 35.8
21:00 1018 30.06 847 25.01 20.3 68.6 30 2.3 36.1
21:05 1018 30.06 847 25.01 20.3 68.5 32 3 37.4
21:10 1018 30.06 847 25.01 20 67.9 31 2.3 36.2
21:15 1017 30.03 846 24.98 19.8 67.7 31 2.4 36.4
21:20 1016 30 846 24.98 19.6 67.3 31 2.4 36.3
21:25 1016 30 845 24.95 19.5 67 31 2.1 35.8
21:30 1016 30 845 24.95 19.7 67.4 29 1.5 34.7
21:35 1016 30 845 24.95 19.8 67.7 30 2 35.6
21:40 1016 30 845 24.95 19.7 67.5 30 1.8 35.2
21:45 1017 30.03 846 24.98 19.7 67.4 31 2.1 35.8
21:50 1017 30.03 846 24.98 19.5 67.1 29 1.1 33.9
21:55 1016 30 846 24.98 19.6 67.3 31 2.2 36
22:00 1016 30 845 24.95 19.4 66.9 30 1.7 35
22:05 1016 30 845 24.95 19.4 66.9 32 2.3 36.2
22:10 1016 30 845 24.95 19.2 66.6 32 2.4 36.3
22:15 1016 30 845 24.95 18.9 66 34 3 37.4
22:20 1016 30 845 24.95 18.5 65.3 36 3.2 37.8
22:25 1016 30 845 24.95 18.5 65.4 33 1.9 35.5
22:30 1016 30 846 24.98 19.9 67.8 26 -0.1 31.9
22:35 1017 30.03 846 24.98 20.8 69.5 26 0.7 33.2
22:40 1017 30.03 846 24.98 20.7 69.3 26 0.5 32.9
22:45 1016 30 846 24.98 20.9 69.6 26 0.8 33.4
22:50 1016 30 845 24.95 20.9 69.6 26 1.1 34
22:55 1015 29.97 845 24.95 20.7 69.2 27 1.1 34
23:00 1015 29.97 844 24.92 20.5 68.9 27 0.9 33.6
23:05 1015 29.97 844 24.92 20.5 68.9 28 1.5 34.8
23:10 1015 29.97 844 24.92 20.1 68.1 30 1.9 35.5
23:15 1015 29.97 844 24.92 19.6 67.3 30 1.8 35.2
23:20 1015 29.97 844 24.92 19.3 66.7 32 2.3 36.1
23:25 1015 29.97 844 24.92 18.7 65.6 35 3.1 37.6
23:30 1015 29.97 844 24.92 18.1 64.6 36 2.8 37
23:35 1015 29.97 844 24.92 18 64.3 37 3.3 38
23:40 1015 29.97 844 24.92 17.5 63.4 39 3.4 38.2
23:45 1015 29.97 844 24.92 17.2 63 40 3.7 38.6
23:50 1015 29.97 844 24.92 16.9 62.4 41 3.7 38.6
23:55 1015 29.97 844 24.92 16.7 62 42 3.7 38.7
24:00 1015 29.97 844 24.92 16.6 61.8 43 3.9 39